Time;durP1;ratioP1;P1;durP2;ratioP2;P2;SDS_P1;SDS_P2;PMS_P1;PMS_P2;Temp;Humidity;BMP_temperature;BMP_pressure;BME280_temperature;BME280_humidity;BME280_pressure;Samples;Min_cycle;Max_cycle;Signal;HPM_P1;HPM_P2
2022/11/15 00:01:36;;;;;;;18.13;9.38;;;;;;;7.83;90.10;98411.66;4989949;28;20490;-83
2022/11/15 00:04:03;;;;;;;12.32;8.15;;;;;;;7.85;91.39;98422.84;5021252;28;20036;-83
2022/11/15 00:06:29;;;;;;;10.32;7.30;;;;;;;7.87;86.63;98415.44;5033205;28;20486;-82
2022/11/15 00:08:54;;;;;;;8.27;6.15;;;;;;;8.06;85.98;98433.56;5015074;28;20044;-83
2022/11/15 00:11:20;;;;;;;8.55;7.22;;;;;;;7.94;88.28;98437.34;5021975;28;20036;-83
2022/11/15 00:13:45;;;;;;;12.70;8.77;;;;;;;7.70;91.33;98409.31;5019416;28;20037;-83
2022/11/15 00:16:11;;;;;;;8.25;6.47;;;;;;;7.84;87.20;98427.34;4976864;28;20037;-83
2022/11/15 00:18:37;;;;;;;9.13;6.18;;;;;;;7.89;84.90;98408.84;5013109;28;20034;-83
2022/11/15 00:21:21;;;;;;;8.95;5.60;;;;;;;7.98;86.29;98427.84;5003004;28;20528;-83
2022/11/15 00:23:46;;;;;;;9.35;7.57;;;;;;;7.87;91.17;98431.38;5020621;28;20108;-83
2022/11/15 00:26:14;;;;;;;8.70;6.07;;;;;;;8.00;84.04;98410.63;5022846;28;20454;-83
2022/11/15 00:28:39;;;;;;;9.80;5.97;;;;;;;8.01;85.17;98414.91;5022021;28;20057;-83
2022/11/15 00:31:07;;;;;;;13.50;8.00;;;;;;;7.89;90.74;98432.75;5008697;28;20103;-84
2022/11/15 00:33:33;;;;;;;12.63;7.95;;;;;;;7.80;92.85;98425.44;5022468;28;20331;-83
2022/11/15 00:36:08;;;;;;;9.45;6.50;;;;;;;7.74;90.20;98413.09;5022526;28;20481;-83
2022/11/15 00:38:36;;;;;;;8.60;6.35;;;;;;;7.89;87.72;98422.13;5024289;28;20099;-83
2022/11/15 00:41:03;;;;;;;14.00;8.65;;;;;;;7.85;91.02;98425.50;5025357;28;20029;-83
2022/11/15 00:43:29;;;;;;;8.65;5.47;;;;;;;7.86;86.86;98417.31;5021744;28;20312;-83
2022/11/15 00:45:55;;;;;;;13.25;7.85;;;;;;;7.89;88.69;98424.78;5001251;28;20029;-83
2022/11/15 00:48:20;;;;;;;7.90;6.55;;;;;;;8.00;84.84;98425.75;5004648;28;20048;-83
2022/11/15 00:50:48;;;;;;;8.45;5.88;;;;;;;8.13;83.42;98423.56;5019760;28;20075;-83
2022/11/15 00:53:13;;;;;;;8.82;6.28;;;;;;;8.18;82.76;98430.81;5025492;28;20037;-83
2022/11/15 00:55:38;;;;;;;7.57;5.72;;;;;;;8.19;83.12;98427.91;5020862;28;20048;-83
2022/11/15 00:58:04;;;;;;;9.90;7.60;;;;;;;7.98;87.15;98431.31;5020585;28;20036;-83
2022/11/15 01:00:29;;;;;;;8.52;6.15;;;;;;;8.14;83.57;98427.84;5021359;28;20025;-83
2022/11/15 01:02:54;;;;;;;10.27;5.60;;;;;;;8.20;82.43;98423.41;5016739;28;20111;-83
2022/11/15 01:05:20;;;;;;;9.75;5.90;;;;;;;8.13;83.18;98418.25;4990097;28;20041;-83
2022/11/15 01:07:45;;;;;;;9.13;6.15;;;;;;;8.25;82.45;98434.13;5021196;28;20440;-83
2022/11/15 01:10:11;;;;;;;8.65;6.15;;;;;;;8.18;83.52;98436.94;5000299;28;20033;-83
2022/11/15 01:12:37;;;;;;;13.45;7.70;;;;;;;7.96;88.73;98424.63;5025197;28;20077;-82
2022/11/15 01:15:03;;;;;;;6.63;5.75;;;;;;;8.01;83.79;98412.25;5024760;28;20105;-83
2022/11/15 01:17:30;;;;;;;13.02;8.93;;;;;;;7.78;90.45;98400.94;5020770;28;20443;-83
2022/11/15 01:19:57;;;;;;;8.27;5.70;;;;;;;7.76;88.66;98405.69;5005325;28;20111;-83
2022/11/15 01:22:23;;;;;;;15.68;8.48;;;;;;;7.81;91.76;98414.56;5019785;28;20427;-83
2022/11/15 01:24:51;;;;;;;6.85;6.15;;;;;;;7.83;87.39;98401.03;5020570;28;20033;-83
2022/11/15 01:27:16;;;;;;;11.68;8.02;;;;;;;7.92;88.58;98411.03;5000591;28;20048;-83
2022/11/15 01:29:42;;;;;;;10.57;5.85;;;;;;;8.00;84.34;98410.63;5014460;28;20383;-84
2022/11/15 01:32:07;;;;;;;8.63;5.88;;;;;;;8.07;83.20;98410.44;5020827;28;20564;-83
2022/11/15 01:34:33;;;;;;;15.45;7.25;;;;;;;8.03;84.84;98409.34;5003723;28;20041;-83
2022/11/15 01:36:58;;;;;;;8.32;6.13;;;;;;;7.96;84.42;98411.34;5019740;28;20121;-83
2022/11/15 01:39:24;;;;;;;8.10;6.03;;;;;;;8.10;83.27;98400.13;5020981;28;20116;-83
2022/11/15 01:41:49;;;;;;;7.28;5.47;;;;;;;8.06;83.11;98401.66;5019032;28;20144;-83
2022/11/15 01:44:33;;;;;;;7.93;5.63;;;;;;;7.97;83.55;98411.09;5023315;28;20230;-83
2022/11/15 01:47:08;;;;;;;10.60;6.05;;;;;;;7.99;83.34;98408.22;5021563;28;20028;-83
2022/11/15 01:49:37;;;;;;;7.10;5.47;;;;;;;7.78;84.10;98400.94;5023091;28;20502;-83
2022/11/15 01:52:07;;;;;;;10.40;6.22;;;;;;;7.81;84.62;98397.81;5007020;28;20477;-83
2022/11/15 01:54:32;;;;;;;9.63;5.50;;;;;;;7.71;84.12;98398.44;5029433;28;20431;-83
2022/11/15 01:57:03;;;;;;;7.93;5.72;;;;;;;7.68;84.26;98390.97;5023764;28;20104;-83
2022/11/15 01:59:29;;;;;;;11.48;6.35;;;;;;;7.85;83.97;98399.75;5028099;28;20025;-84
2022/11/15 02:01:55;;;;;;;10.43;7.07;;;;;;;7.81;83.56;98405.78;5022202;28;20481;-83
2022/11/15 02:04:33;;;;;;;9.52;6.18;;;;;;;7.79;83.23;98394.59;5023138;28;20079;-83
2022/11/15 02:07:02;;;;;;;10.90;6.97;;;;;;;7.60;83.94;98382.59;5022906;28;20493;-83
2022/11/15 02:09:29;;;;;;;11.27;8.60;;;;;;;7.63;84.37;98390.88;5003726;28;20044;-84
2022/11/15 02:11:55;;;;;;;13.73;9.25;;;;;;;7.55;84.34;98384.13;5020089;28;20026;-84
2022/11/15 02:14:23;;;;;;;12.57;9.75;;;;;;;7.49;84.52;98379.75;5028554;28;20056;-84
2022/11/15 02:16:51;;;;;;;12.77;9.45;;;;;;;7.62;84.61;98391.94;5022589;28;20076;-83
2022/11/15 02:19:31;;;;;;;11.73;9.57;;;;;;;7.52;83.93;98378.47;5022999;28;20109;-83
2022/11/15 02:22:34;;;;;;;20.15;14.23;;;;;;;7.47;85.03;98389.81;5024421;28;20071;-84
2022/11/15 02:25:27;;;;;;;17.58;11.00;;;;;;;7.70;84.36;98382.75;5022085;28;20030;-83
2022/11/15 02:28:10;;;;;;;12.18;10.02;;;;;;;7.48;84.52;98364.06;5027273;28;20037;-83
2022/11/15 02:31:10;;;;;;;12.90;10.65;;;;;;;7.61;84.69;98371.72;5020177;28;20595;-83
2022/11/15 02:33:41;;;;;;;15.45;10.57;;;;;;;7.47;84.57;98365.91;5023386;28;20083;-83
2022/11/15 02:36:32;;;;;;;11.82;9.68;;;;;;;7.31;84.50;98345.50;5022568;28;20073;-83
2022/11/15 02:39:17;;;;;;;11.45;9.23;;;;;;;7.51;84.60;98359.06;5017514;28;20104;-84
2022/11/15 02:41:52;;;;;;;15.77;10.63;;;;;;;7.47;85.11;98367.75;5028068;28;20080;-84
2022/11/15 02:44:30;;;;;;;13.18;9.50;;;;;;;7.39;84.46;98347.75;5027575;28;20038;-82
2022/11/15 02:47:12;;;;;;;12.45;8.23;;;;;;;7.45;84.33;98360.03;5020488;28;20041;-83
2022/11/15 02:49:41;;;;;;;9.77;8.07;;;;;;;7.37;84.36;98347.19;5020992;28;20442;-82
2022/11/15 02:52:06;;;;;;;14.30;8.60;;;;;;;7.37;84.54;98349.84;5018317;28;20044;-82
2022/11/15 02:54:33;;;;;;;11.13;8.32;;;;;;;7.32;83.98;98347.09;5024021;28;20041;-82
2022/11/15 02:57:07;;;;;;;9.95;8.05;;;;;;;7.43;83.95;98354.19;5025447;28;20033;-82
2022/11/15 02:59:57;;;;;;;11.02;8.50;;;;;;;7.36;83.99;98350.88;5019805;28;20552;-83
2022/11/15 03:02:33;;;;;;;13.77;8.57;;;;;;;7.29;84.65;98363.50;5021900;28;20028;-82
2022/11/15 03:05:32;;;;;;;12.07;7.32;;;;;;;6.78;88.24;98339.72;5018849;28;20697;-82
2022/11/15 03:08:17;;;;;;;11.05;6.82;;;;;;;6.81;89.40;98363.13;5019885;28;20033;-82
2022/11/15 03:11:02;;;;;;;15.10;8.27;;;;;;;7.00;86.34;98353.13;5024774;28;20028;-81
2022/11/15 03:13:39;;;;;;;12.25;8.27;;;;;;;7.18;84.62;98356.41;5024175;28;20278;-82
2022/11/15 03:16:34;;;;;;;8.75;7.63;;;;;;;7.10;85.22;98348.81;5020034;28;20044;-82
2022/11/15 03:19:11;;;;;;;10.18;7.20;;;;;;;7.31;84.19;98360.59;5019795;28;20388;-82
2022/11/15 03:21:39;;;;;;;8.65;7.18;;;;;;;7.43;83.49;98359.47;5021787;28;20060;-82
2022/11/15 03:24:07;;;;;;;9.55;7.13;;;;;;;7.33;83.88;98342.59;5008792;28;20039;-82
2022/11/15 03:26:38;;;;;;;9.48;6.95;;;;;;;7.33;84.23;98348.69;5016975;28;20034;-83
2022/11/15 03:29:33;;;;;;;9.60;6.85;;;;;;;7.44;84.13;98358.44;5017817;28;20032;-82
2022/11/15 03:32:23;;;;;;;8.73;6.32;;;;;;;7.49;82.71;98342.59;5017285;28;20167;-82
2022/11/15 03:34:53;;;;;;;10.07;6.38;;;;;;;7.54;83.35;98358.59;5022329;28;20469;-82
2022/11/15 03:37:24;;;;;;;7.45;6.43;;;;;;;7.43;83.75;98338.25;5023335;28;20036;-82
2022/11/15 03:39:50;;;;;;;7.72;6.15;;;;;;;7.56;83.87;98358.34;5021271;28;20057;-82
2022/11/15 03:42:30;;;;;;;10.20;6.20;;;;;;;7.64;83.70;98349.19;5024022;28;20065;-82
2022/11/15 03:45:08;;;;;;;8.52;6.68;;;;;;;7.67;83.61;98341.53;5023946;28;20033;-82
2022/11/15 03:47:42;;;;;;;10.18;6.43;;;;;;;7.63;83.88;98356.34;5015928;28;20029;-82
2022/11/15 03:50:12;;;;;;;10.50;6.35;;;;;;;7.51;85.18;98337.84;5022037;28;20565;-82
2022/11/15 03:52:40;;;;;;;9.68;6.82;;;;;;;7.74;84.76;98357.31;5022219;28;20042;-82
2022/11/15 03:55:11;;;;;;;9.93;6.18;;;;;;;7.65;84.59;98356.09;5018913;28;20051;-82
2022/11/15 03:57:36;;;;;;;9.40;5.57;;;;;;;7.69;84.43;98357.25;5024264;28;20034;-82
2022/11/15 04:00:03;;;;;;;7.70;6.18;;;;;;;7.61;85.14;98352.31;5021658;28;20554;-82
2022/11/15 04:02:29;;;;;;;8.18;5.45;;;;;;;7.66;85.23;98361.19;5021602;28;20485;-83
2022/11/15 04:04:54;;;;;;;7.50;4.82;;;;;;;7.45;86.71;98336.16;5020237;28;20061;-82
2022/11/15 04:07:20;;;;;;;9.25;6.32;;;;;;;7.65;85.22;98351.59;5015907;28;20501;-82
2022/11/15 04:10:03;;;;;;;10.18;6.30;;;;;;;7.74;85.00;98358.13;5006214;28;20025;-82
2022/11/15 04:12:33;;;;;;;7.30;6.28;;;;;;;7.59;84.28;98347.28;5018218;28;20033;-82
2022/11/15 04:15:08;;;;;;;8.32;5.30;;;;;;;7.70;85.16;98357.00;5001988;28;20041;-82
2022/11/15 04:17:51;;;;;;;9.77;5.80;;;;;;;7.69;84.35;98357.25;5019634;28;20052;-82
2022/11/15 04:26:04;;;;;;;6.55;5.20;;;;;;;7.58;84.18;98338.50;5024298;28;20067;-82
2022/11/15 04:28:30;;;;;;;8.85;5.70;;;;;;;7.63;84.14;98329.00;5022226;28;20306;-82
2022/11/15 04:30:55;;;;;;;9.98;5.85;;;;;;;7.70;84.02;98354.34;5005405;28;20033;-82
2022/11/15 04:33:21;;;;;;;10.43;5.60;;;;;;;7.67;84.02;98356.66;5022920;28;20475;-82
2022/11/15 04:37:11;;;;;;;8.52;5.47;;;;;;;7.55;84.65;98349.63;5021769;28;20033;-82
2022/11/15 04:38:33;;;;;;;7.93;5.43;;;;;;;7.49;84.84;98342.59;5024791;28;20394;-82
2022/11/15 04:40:58;;;;;;;9.35;5.90;;;;;;;7.56;84.70;98353.84;5023176;28;20036;-82
2022/11/15 04:43:23;;;;;;;7.47;5.70;;;;;;;7.59;84.10;98347.28;5010342;28;20517;-83
2022/11/15 04:45:49;;;;;;;8.55;6.00;;;;;;;7.71;83.29;98349.84;5021725;28;20037;-82
2022/11/15 04:48:14;;;;;;;8.60;5.03;;;;;;;7.46;84.21;98329.00;5020528;28;20468;-82
2022/11/15 04:50:39;;;;;;;8.75;5.68;;;;;;;7.49;84.00;98331.97;5016979;28;21494;-82
2022/11/15 04:53:05;;;;;;;8.35;5.28;;;;;;;7.51;84.65;98327.22;5009088;28;20122;-82
2022/11/15 04:55:31;;;;;;;8.57;5.70;;;;;;;7.46;84.06;98329.00;5022647;28;20030;-82
2022/11/15 04:58:00;;;;;;;6.65;5.47;;;;;;;7.38;84.28;98332.84;5023168;28;20026;-82
2022/11/15 05:00:27;;;;;;;6.07;4.90;;;;;;;7.39;84.75;98323.84;5019786;28;20041;-81
2022/11/15 05:05:37;;;;;;;8.25;5.70;;;;;;;7.33;83.91;98322.16;5026935;28;20137;-81
2022/11/15 05:08:02;;;;;;;8.10;4.97;;;;;;;7.58;83.30;98330.53;5021971;28;20112;-81
2022/11/15 05:10:28;;;;;;;6.80;4.90;;;;;;;7.46;83.50;98321.03;5020852;28;20489;-82
2022/11/15 05:12:53;;;;;;;8.23;5.82;;;;;;;7.43;84.43;98329.47;5002981;28;20504;-81
2022/11/15 05:15:18;;;;;;;9.65;5.93;;;;;;;7.45;82.83;98322.06;5020571;28;20030;-82
2022/11/15 05:17:44;;;;;;;7.85;5.43;;;;;;;7.36;83.77;98311.03;5026392;28;20060;-82
2022/11/15 05:20:10;;;;;;;7.28;5.13;;;;;;;7.34;83.45;98307.00;5006597;28;20044;-82
2022/11/15 05:22:35;;;;;;;7.40;5.82;;;;;;;7.33;83.78;98302.75;5027174;28;20398;-82
2022/11/15 05:25:00;;;;;;;10.75;5.57;;;;;;;7.28;84.46;98306.13;5026325;28;20311;-81
2022/11/15 05:27:26;;;;;;;8.68;7.05;;;;;;;7.17;84.43;98300.88;5006349;28;20537;-82
2022/11/15 05:29:51;;;;;;;10.27;6.05;;;;;;;7.21;84.78;98313.44;5024688;28;20489;-81
2022/11/15 05:32:17;;;;;;;8.02;5.90;;;;;;;7.28;84.36;98305.31;5004221;28;20040;-80
2022/11/15 05:34:43;;;;;;;8.95;6.65;;;;;;;7.31;84.10;98315.47;5028156;28;20052;-81
2022/11/15 05:37:09;;;;;;;7.45;6.05;;;;;;;7.30;84.24;98317.31;5019586;28;20037;-83
2022/11/15 05:39:34;;;;;;;10.43;5.97;;;;;;;7.20;84.94;98317.16;5022152;28;20034;-83
2022/11/15 05:42:09;;;;;;;9.23;5.93;;;;;;;7.26;84.79;98324.16;5022736;28;20025;-82
2022/11/15 05:44:36;;;;;;;8.43;6.13;;;;;;;7.18;84.98;98316.59;5028329;28;20025;-82
2022/11/15 05:47:03;;;;;;;10.02;5.97;;;;;;;7.12;85.21;98293.66;5024494;28;20079;-81
2022/11/15 05:49:33;;;;;;;9.45;6.63;;;;;;;7.23;85.46;98315.88;5010293;28;20124;-82
2022/11/15 05:51:59;;;;;;;7.70;5.70;;;;;;;7.30;84.19;98316.50;5024692;28;20044;-81
2022/11/15 05:54:25;;;;;;;9.68;6.20;;;;;;;7.20;84.93;98309.19;5030462;28;20413;-82
2022/11/15 05:56:51;;;;;;;9.63;5.78;;;;;;;7.17;84.66;98312.31;5012578;28;20044;-81
2022/11/15 05:59:17;;;;;;;7.65;5.68;;;;;;;7.21;85.88;98328.56;5029745;28;20021;-81
2022/11/15 06:01:42;;;;;;;9.10;5.57;;;;;;;7.28;85.69;98330.03;5028497;28;20034;-82
2022/11/15 06:04:08;;;;;;;9.73;5.93;;;;;;;7.21;85.07;98310.78;5031081;28;20029;-82
2022/11/15 06:06:33;;;;;;;9.57;6.07;;;;;;;7.33;85.65;98324.81;5025270;28;20104;-82
2022/11/15 06:08:58;;;;;;;9.27;5.35;;;;;;;7.25;84.82;98309.25;5011552;28;20053;-82
2022/11/15 06:11:24;;;;;;;9.90;6.78;;;;;;;7.33;84.80;98316.84;5011747;28;20421;-82
2022/11/15 06:13:49;;;;;;;15.13;5.97;;;;;;;7.41;84.66;98328.91;5027820;28;20113;-82
2022/11/15 06:16:15;;;;;;;9.90;6.22;;;;;;;7.43;84.04;98342.75;5014183;28;20504;-82
2022/11/15 06:18:40;;;;;;;8.20;5.72;;;;;;;7.42;85.22;98333.19;5032127;28;20037;-82
2022/11/15 06:21:06;;;;;;;9.13;6.50;;;;;;;7.47;85.24;98344.69;5030300;28;20099;-82
2022/11/15 06:23:33;;;;;;;11.70;6.10;;;;;;;7.41;85.13;98356.28;5025701;28;20524;-82
2022/11/15 06:25:59;;;;;;;9.27;6.28;;;;;;;7.31;85.89;98340.19;5011297;28;20036;-82
2022/11/15 06:28:24;;;;;;;6.80;5.35;;;;;;;7.24;85.54;98334.22;5026098;28;20026;-82
2022/11/15 06:30:50;;;;;;;8.45;5.97;;;;;;;7.46;85.58;98353.72;5023543;28;20052;-82
2022/11/15 06:33:15;;;;;;;10.27;5.90;;;;;;;7.50;85.35;98362.78;4999526;28;20040;-81
2022/11/15 06:35:41;;;;;;;8.50;6.05;;;;;;;7.44;85.72;98362.94;5027323;28;20037;-82
2022/11/15 06:38:09;;;;;;;8.93;6.47;;;;;;;7.22;87.21;98357.53;5023949;28;20478;-82
2022/11/15 06:40:36;;;;;;;10.13;6.10;;;;;;;7.29;86.04;98354.72;5028696;28;20043;-82
2022/11/15 06:43:02;;;;;;;11.55;7.50;;;;;;;6.93;89.27;98361.22;4986869;28;20030;-82
2022/11/15 06:45:27;;;;;;;9.57;6.88;;;;;;;6.84;89.88;98351.25;5027850;28;20087;-83
2022/11/15 06:47:53;;;;;;;15.43;7.70;;;;;;;7.04;89.63;98373.66;5029038;28;20030;-81
2022/11/15 06:50:19;;;;;;;8.80;6.60;;;;;;;7.18;87.56;98364.38;5029843;28;20041;-82
2022/11/15 06:52:44;;;;;;;9.13;6.00;;;;;;;7.36;85.94;98374.75;5009685;28;20124;-81
2022/11/15 06:55:10;;;;;;;10.07;6.43;;;;;;;7.33;86.01;98361.97;5030829;28;20108;-82
2022/11/15 06:57:36;;;;;;;9.02;5.50;;;;;;;7.42;86.58;98373.81;5030029;28;20116;-82
2022/11/15 07:00:04;;;;;;;9.40;5.75;;;;;;;7.41;85.81;98364.22;5021804;28;20036;-82
2022/11/15 07:02:30;;;;;;;11.13;6.82;;;;;;;7.25;85.71;98335.03;5029292;28;20508;-82
2022/11/15 07:04:55;;;;;;;9.25;6.15;;;;;;;7.20;85.87;98333.09;4994160;28;20040;-82
2022/11/15 07:07:21;;;;;;;9.45;5.50;;;;;;;7.49;85.06;98368.34;5013320;28;20029;-82
2022/11/15 07:09:46;;;;;;;8.88;6.53;;;;;;;7.26;85.56;98353.34;5016528;28;20121;-82
2022/11/15 07:12:11;;;;;;;7.63;6.00;;;;;;;7.30;86.44;98351.81;5011673;28;20732;-82
2022/11/15 07:14:37;;;;;;;7.45;5.45;;;;;;;7.35;84.57;98333.34;4995376;28;20045;-82
2022/11/15 07:17:05;;;;;;;7.10;6.18;;;;;;;7.35;85.10;98335.19;5016528;28;20198;-82
2022/11/15 07:19:31;;;;;;;7.82;5.72;;;;;;;7.49;85.36;98341.81;5012282;28;20025;-82
2022/11/15 07:21:56;;;;;;;9.13;6.45;;;;;;;7.42;85.30;98341.16;5012383;28;20033;-82
2022/11/15 07:24:22;;;;;;;7.97;5.35;;;;;;;7.57;84.86;98350.19;5013712;28;20060;-82
2022/11/15 07:26:47;;;;;;;9.02;5.78;;;;;;;7.43;85.12;98353.38;5012958;28;20029;-82
2022/11/15 07:29:13;;;;;;;14.93;6.38;;;;;;;7.34;85.58;98342.34;5013550;28;20442;-82
2022/11/15 07:31:38;;;;;;;8.73;5.80;;;;;;;7.36;84.87;98339.47;5012263;28;20085;-81
2022/11/15 07:34:04;;;;;;;10.00;6.43;;;;;;;7.30;84.99;98349.16;5012281;28;20540;-82
2022/11/15 07:36:29;;;;;;;8.60;5.30;;;;;;;7.33;85.30;98359.31;5013153;28;20029;-82
2022/11/15 07:38:55;;;;;;;9.02;7.15;;;;;;;7.34;85.74;98350.28;4999776;28;20588;-82
2022/11/15 07:41:20;;;;;;;6.90;5.35;;;;;;;7.36;84.85;98348.22;4980848;28;20080;-82
2022/11/15 07:43:45;;;;;;;9.13;5.43;;;;;;;7.34;84.96;98341.53;5015333;28;20037;-82
2022/11/15 07:46:11;;;;;;;10.00;5.57;;;;;;;7.37;85.43;98343.72;5011857;28;20120;-81
2022/11/15 07:48:39;;;;;;;8.70;6.05;;;;;;;7.38;84.58;98358.59;5014146;28;20033;-82
2022/11/15 07:51:04;;;;;;;6.55;5.45;;;;;;;7.39;85.32;98349.59;5015821;28;20049;-82
2022/11/15 07:53:30;;;;;;;10.50;6.20;;;;;;;7.21;85.95;98332.03;4998030;28;20120;-82
2022/11/15 07:55:55;;;;;;;8.18;6.13;;;;;;;7.24;85.09;98355.44;5013653;28;20203;-82
2022/11/15 07:58:20;;;;;;;8.13;5.78;;;;;;;7.38;85.17;98353.28;4998399;28;20030;-82
2022/11/15 08:00:46;;;;;;;8.45;6.05;;;;;;;7.26;85.16;98339.28;5012459;28;20064;-82
2022/11/15 08:03:14;;;;;;;8.73;5.60;;;;;;;7.37;85.04;98354.31;5014907;28;20034;-82
2022/11/15 08:05:41;;;;;;;10.68;6.20;;;;;;;7.30;85.23;98343.06;5028606;28;20034;-82
2022/11/15 08:08:11;;;;;;;6.75;5.93;;;;;;;7.46;85.09;98345.75;5013465;28;20061;-82
2022/11/15 08:10:37;;;;;;;10.82;6.63;;;;;;;7.39;85.55;98344.28;5008811;28;20032;-82
2022/11/15 08:13:05;;;;;;;9.80;6.05;;;;;;;7.44;84.24;98342.53;5011149;28;20037;-82
2022/11/15 08:15:32;;;;;;;12.15;7.35;;;;;;;7.28;84.70;98330.03;5027966;28;20033;-82
2022/11/15 08:17:59;;;;;;;8.60;6.57;;;;;;;7.36;84.82;98342.91;4997642;28;20481;-82
2022/11/15 08:20:29;;;;;;;9.68;7.25;;;;;;;7.22;85.33;98323.03;5030631;28;20164;-82
2022/11/15 08:22:59;;;;;;;12.30;6.65;;;;;;;7.30;85.33;98338.56;5013158;28;20040;-82
2022/11/15 08:25:26;;;;;;;9.70;6.97;;;;;;;7.09;86.25;98326.00;5012633;28;20126;-82
2022/11/15 08:28:00;;;;;;;9.90;6.05;;;;;;;7.27;85.16;98339.03;4998657;28;20037;-82
2022/11/15 08:30:27;;;;;;;9.23;6.57;;;;;;;7.23;85.62;98353.03;5011188;28;20060;-82
2022/11/15 08:32:53;;;;;;;11.18;7.15;;;;;;;7.18;86.40;98352.94;5010704;28;20108;-82
2022/11/15 08:35:20;;;;;;;10.15;6.80;;;;;;;7.33;85.04;98332.78;5013285;28;20459;-82
2022/11/15 08:37:46;;;;;;;10.32;7.10;;;;;;;7.25;86.05;98340.34;5014005;28;20079;-82
2022/11/15 08:40:12;;;;;;;10.93;5.97;;;;;;;7.29;85.54;98350.22;5012431;28;20037;-82
2022/11/15 08:42:38;;;;;;;10.85;6.63;;;;;;;7.18;86.97;98343.13;5012057;28;20057;-82
2022/11/15 08:45:04;;;;;;;11.93;7.30;;;;;;;7.25;88.62;98354.38;5012251;28;20130;-83
2022/11/15 08:47:30;;;;;;;11.95;6.72;;;;;;;7.37;87.11;98349.03;5013623;28;20049;-82
2022/11/15 08:49:55;;;;;;;10.65;6.68;;;;;;;7.36;86.90;98323.53;5012183;28;20040;-82
2022/11/15 08:52:20;;;;;;;12.60;6.82;;;;;;;7.38;88.41;98335.50;4994225;28;20036;-82
2022/11/15 08:54:46;;;;;;;10.02;6.38;;;;;;;7.42;85.93;98323.38;5015569;28;20033;-82
2022/11/15 08:57:12;;;;;;;16.90;7.38;;;;;;;7.36;88.42;98320.88;5009523;28;20292;-82
2022/11/15 08:59:37;;;;;;;10.52;7.40;;;;;;;7.49;88.41;98324.00;4994308;28;20117;-81
2022/11/15 09:02:03;;;;;;;8.60;6.10;;;;;;;7.47;86.54;98296.88;4994481;28;20037;-82
2022/11/15 09:04:29;;;;;;;10.20;6.72;;;;;;;7.70;88.42;98316.34;4997010;28;20037;-82
2022/11/15 09:06:54;;;;;;;10.50;6.90;;;;;;;7.67;87.55;98299.03;5030016;28;20048;-82
2022/11/15 09:09:20;;;;;;;10.88;6.43;;;;;;;7.88;86.52;98303.63;4991861;28;20487;-82
2022/11/15 09:11:45;;;;;;;10.82;7.00;;;;;;;7.83;86.91;98295.59;4994144;28;20394;-82
2022/11/15 09:14:12;;;;;;;8.95;6.63;;;;;;;7.82;87.05;98298.50;5009510;28;20561;-82
2022/11/15 09:16:38;;;;;;;8.65;6.32;;;;;;;7.99;85.86;98301.91;5016439;28;20524;-81
2022/11/15 09:19:03;;;;;;;8.98;6.35;;;;;;;7.96;87.01;98294.41;5029413;28;20965;-82
2022/11/15 09:21:30;;;;;;;8.25;6.32;;;;;;;7.82;86.67;98266.59;5011682;28;20053;-82
2022/11/15 09:23:55;;;;;;;8.18;6.38;;;;;;;7.98;87.68;98292.31;5013576;28;20461;-82
2022/11/15 09:26:21;;;;;;;8.60;6.32;;;;;;;8.01;87.44;98283.88;5012700;28;20090;-82
2022/11/15 09:28:47;;;;;;;10.50;6.53;;;;;;;8.00;86.87;98288.38;5009719;28;20063;-82
2022/11/15 09:31:12;;;;;;;7.95;5.70;;;;;;;7.90;87.15;98277.63;5012849;28;20041;-82
2022/11/15 09:33:37;;;;;;;9.85;6.28;;;;;;;8.12;87.88;98310.34;4996184;28;20037;-81
2022/11/15 09:36:07;;;;;;;9.88;6.30;;;;;;;8.09;87.73;98288.75;5012053;28;20029;-82
2022/11/15 09:38:33;;;;;;;7.75;5.63;;;;;;;8.33;85.66;98292.81;5011617;28;20026;-82
2022/11/15 09:41:33;;;;;;;9.75;5.97;;;;;;;8.16;87.37;98279.56;5010089;28;20052;-82
2022/11/15 09:44:21;;;;;;;11.50;5.90;;;;;;;8.29;87.06;98268.59;5014113;28;20056;-83
2022/11/15 09:47:24;;;;;;;6.22;5.32;;;;;;;8.56;85.60;98299.75;5012539;28;20112;-81
2022/11/15 09:49:55;;;;;;;8.10;5.95;;;;;;;8.60;85.80;98287.56;5008520;28;20057;-81
2022/11/15 09:52:21;;;;;;;10.63;5.45;;;;;;;8.63;86.99;98287.84;5011196;28;20124;-82
2022/11/15 09:54:50;;;;;;;13.13;8.70;;;;;;;8.62;86.70;98288.91;5010497;28;20097;-82
2022/11/15 09:57:21;;;;;;;8.75;6.25;;;;;;;8.82;85.76;98283.00;5012533;28;20040;-81
2022/11/15 09:59:58;;;;;;;11.27;6.55;;;;;;;9.02;86.76;98296.53;5016475;28;20040;-82
2022/11/15 10:02:42;;;;;;;7.50;5.70;;;;;;;9.25;85.26;98298.84;5010008;28;20034;-82
2022/11/15 10:05:14;;;;;;;8.70;6.53;;;;;;;9.33;83.59;98290.41;5008636;28;20482;-82
2022/11/15 10:07:39;;;;;;;7.60;5.95;;;;;;;9.36;83.22;98289.09;5012219;28;21361;-82
2022/11/15 10:10:34;;;;;;;8.07;6.03;;;;;;;9.36;83.82;98278.44;5017079;28;20059;-82
2022/11/15 10:13:00;;;;;;;6.20;5.45;;;;;;;9.31;83.40;98270.41;5016546;28;20041;-82
2022/11/15 10:15:26;;;;;;;7.13;5.38;;;;;;;9.40;82.62;98268.88;5015083;28;20094;-82
2022/11/15 10:17:58;;;;;;;11.35;6.88;;;;;;;9.41;82.50;98278.50;5013182;28;20029;-82
2022/11/15 10:20:27;;;;;;;7.22;5.68;;;;;;;9.48;82.44;98277.19;5017490;28;20679;-82
2022/11/15 10:22:59;;;;;;;7.18;5.53;;;;;;;9.26;83.23;98249.84;5009002;28;20025;-82
2022/11/15 10:25:28;;;;;;;9.43;5.03;;;;;;;9.41;82.62;98257.19;5001111;28;20397;-82
2022/11/15 10:27:56;;;;;;;9.82;6.30;;;;;;;9.36;83.60;98257.13;4999037;28;20060;-82
2022/11/15 10:30:22;;;;;;;9.85;6.43;;;;;;;9.43;82.99;98250.53;5017798;28;20041;-82
2022/11/15 10:32:49;;;;;;;7.63;5.53;;;;;;;9.52;83.08;98253.53;5013834;28;20030;-82
2022/11/15 10:35:17;;;;;;;7.40;5.75;;;;;;;9.58;83.63;98244.50;5012658;28;20328;-81
2022/11/15 10:37:43;;;;;;;8.38;5.65;;;;;;;9.62;83.11;98237.59;5014322;28;20394;-82
2022/11/15 10:40:23;;;;;;;8.75;5.72;;;;;;;9.69;83.09;98240.84;5014692;28;20037;-82
2022/11/15 10:43:14;;;;;;;8.10;5.88;;;;;;;9.49;84.22;98227.41;5014106;28;20045;-82
2022/11/15 10:45:40;;;;;;;10.70;5.40;;;;;;;9.70;83.52;98234.44;4999048;28;20034;-82
2022/11/15 10:48:11;;;;;;;10.63;5.90;;;;;;;9.93;82.88;98242.06;5013559;28;20087;-82
2022/11/15 10:50:38;;;;;;;8.10;5.57;;;;;;;10.04;81.77;98222.38;5011102;28;20036;-82
2022/11/15 10:53:04;;;;;;;6.78;5.68;;;;;;;10.04;82.22;98227.72;5011493;28;20038;-82
2022/11/15 10:55:33;;;;;;;7.03;5.00;;;;;;;10.07;82.56;98229.84;5010754;28;20033;-82
2022/11/15 10:58:30;;;;;;;9.43;5.20;;;;;;;10.20;81.54;98217.97;5014751;28;20754;-81
2022/11/15 11:01:09;;;;;;;8.70;5.28;;;;;;;10.23;81.92;98209.41;5013556;28;20078;-82
2022/11/15 11:03:39;;;;;;;7.80;5.70;;;;;;;10.50;81.76;98213.53;5014036;28;20071;-82
2022/11/15 11:06:16;;;;;;;11.10;5.63;;;;;;;10.59;81.60;98205.81;5015596;28;20037;-82
2022/11/15 11:09:20;;;;;;;13.30;6.03;;;;;;;10.63;80.62;98203.41;4995863;28;20072;-81
2022/11/15 11:11:48;;;;;;;8.00;5.97;;;;;;;10.74;80.75;98208.50;5015081;28;20025;-81
2022/11/15 11:14:31;;;;;;;11.82;5.93;;;;;;;10.75;80.04;98202.06;5013892;28;20033;-81
2022/11/15 11:17:20;;;;;;;8.45;5.55;;;;;;;10.75;80.59;98186.06;5013254;28;20033;-81
2022/11/15 11:20:05;;;;;;;9.07;5.57;;;;;;;10.87;80.15;98193.81;5015054;28;20474;-82
2022/11/15 11:22:34;;;;;;;11.00;5.45;;;;;;;11.07;80.26;98196.50;5013057;28;20033;-82
2022/11/15 11:25:30;;;;;;;7.68;5.05;;;;;;;11.10;80.01;98206.63;5027891;28;20501;-82
2022/11/15 11:28:17;;;;;;;11.23;5.97;;;;;;;11.09;80.35;98197.84;5012080;28;20120;-82
2022/11/15 11:31:23;;;;;;;9.45;5.05;;;;;;;11.05;80.70;98191.41;5014069;28;20045;-82
2022/11/15 11:34:13;;;;;;;7.43;4.75;;;;;;;11.15;80.70;98190.63;5019700;28;20042;-81
2022/11/15 11:37:09;;;;;;;8.95;4.80;;;;;;;11.36;80.49;98202.09;5014981;28;20757;-82
2022/11/15 11:40:06;;;;;;;9.27;4.68;;;;;;;11.39;79.53;98193.53;5008377;28;20025;-82
2022/11/15 11:43:01;;;;;;;6.78;4.85;;;;;;;11.47;79.65;98191.09;5014440;28;20037;-82
2022/11/15 11:45:43;;;;;;;8.35;5.10;;;;;;;11.66;79.46;98189.50;5013430;28;20043;-82
2022/11/15 11:48:18;;;;;;;7.65;4.53;;;;;;;11.74;79.05;98178.25;5008841;28;20025;-82
2022/11/15 11:50:45;;;;;;;6.10;4.50;;;;;;;11.74;79.21;98180.13;5015880;28;20040;-82
2022/11/15 11:53:10;;;;;;;6.70;4.78;;;;;;;11.70;78.90;98177.22;5013135;28;20030;-81
2022/11/15 11:55:47;;;;;;;8.65;5.20;;;;;;;11.58;79.31;98168.63;5016426;28;20028;-83
2022/11/15 11:58:38;;;;;;;6.60;5.35;;;;;;;11.50;79.32;98177.22;5013583;28;20123;-82
2022/11/15 12:01:25;;;;;;;6.00;5.20;;;;;;;11.47;79.35;98177.75;5015644;28;20041;-82
2022/11/15 12:04:04;;;;;;;;;;;;;;;11.53;79.31;98170.53;5013252;28;20038;-82